sensor_id;sensor_type;location;lat;lon;timestamp;P1;durP1;ratioP1;P2;durP2;ratioP2
40116;SDS011;25829;50.228;18.936;2022-07-23T00:02:07;14.32;;;11.77;;
40116;SDS011;25829;50.228;18.936;2022-07-23T00:05:08;13.02;;;11.48;;
40116;SDS011;25829;50.228;18.936;2022-07-23T00:08:09;12.75;;;11.23;;
40116;SDS011;25829;50.228;18.936;2022-07-23T00:11:10;13.50;;;12.10;;
40116;SDS011;25829;50.228;18.936;2022-07-23T00:14:11;14.88;;;11.75;;
40116;SDS011;25829;50.228;18.936;2022-07-23T00:17:11;16.67;;;12.82;;
40116;SDS011;25829;50.228;18.936;2022-07-23T00:20:12;13.73;;;11.90;;
40116;SDS011;25829;50.228;18.936;2022-07-23T00:23:13;13.50;;;11.95;;
40116;SDS011;25829;50.228;18.936;2022-07-23T00:26:15;13.82;;;11.93;;
40116;SDS011;25829;50.228;18.936;2022-07-23T00:29:16;14.57;;;11.35;;
40116;SDS011;25829;50.228;18.936;2022-07-23T00:32:17;13.05;;;11.65;;
40116;SDS011;25829;50.228;18.936;2022-07-23T00:35:21;14.02;;;11.88;;
40116;SDS011;25829;50.228;18.936;2022-07-23T00:38:22;11.93;;;10.70;;
40116;SDS011;25829;50.228;18.936;2022-07-23T00:41:23;13.32;;;10.80;;
40116;SDS011;25829;50.228;18.936;2022-07-23T00:44:25;13.40;;;12.10;;
40116;SDS011;25829;50.228;18.936;2022-07-23T00:47:27;18.90;;;12.43;;
40116;SDS011;25829;50.228;18.936;2022-07-23T00:50:28;13.98;;;11.88;;
40116;SDS011;25829;50.228;18.936;2022-07-23T00:53:29;14.30;;;11.18;;
40116;SDS011;25829;50.228;18.936;2022-07-23T00:56:31;14.10;;;11.07;;
40116;SDS011;25829;50.228;18.936;2022-07-23T00:59:33;16.55;;;10.77;;
40116;SDS011;25829;50.228;18.936;2022-07-23T01:02:34;16.17;;;10.50;;
40116;SDS011;25829;50.228;18.936;2022-07-23T01:05:34;14.48;;;10.73;;
40116;SDS011;25829;50.228;18.936;2022-07-23T01:08:35;20.15;;;10.23;;
40116;SDS011;25829;50.228;18.936;2022-07-23T01:11:36;13.60;;;11.35;;
40116;SDS011;25829;50.228;18.936;2022-07-23T01:14:40;12.27;;;10.60;;
40116;SDS011;25829;50.228;18.936;2022-07-23T01:17:41;11.57;;;10.25;;
40116;SDS011;25829;50.228;18.936;2022-07-23T01:20:42;13.02;;;9.98;;
40116;SDS011;25829;50.228;18.936;2022-07-23T01:23:43;13.77;;;9.77;;
40116;SDS011;25829;50.228;18.936;2022-07-23T01:26:44;12.85;;;9.93;;
40116;SDS011;25829;50.228;18.936;2022-07-23T01:29:46;15.68;;;10.07;;
40116;SDS011;25829;50.228;18.936;2022-07-23T01:32:52;14.18;;;11.13;;
40116;SDS011;25829;50.228;18.936;2022-07-23T01:35:53;16.60;;;9.38;;
40116;SDS011;25829;50.228;18.936;2022-07-23T01:38:57;17.50;;;10.32;;
40116;SDS011;25829;50.228;18.936;2022-07-23T01:41:58;13.18;;;9.90;;
40116;SDS011;25829;50.228;18.936;2022-07-23T01:45:00;22.13;;;10.27;;
40116;SDS011;25829;50.228;18.936;2022-07-23T01:48:01;18.92;;;9.80;;
40116;SDS011;25829;50.228;18.936;2022-07-23T01:51:04;16.73;;;11.40;;
40116;SDS011;25829;50.228;18.936;2022-07-23T01:54:15;13.30;;;10.30;;
40116;SDS011;25829;50.228;18.936;2022-07-23T01:57:16;13.55;;;10.25;;
40116;SDS011;25829;50.228;18.936;2022-07-23T02:00:17;11.55;;;10.35;;
40116;SDS011;25829;50.228;18.936;2022-07-23T02:03:22;16.25;;;10.45;;
40116;SDS011;25829;50.228;18.936;2022-07-23T02:06:23;11.85;;;10.65;;
40116;SDS011;25829;50.228;18.936;2022-07-23T02:09:24;13.65;;;9.65;;
40116;SDS011;25829;50.228;18.936;2022-07-23T02:12:25;11.50;;;9.90;;
40116;SDS011;25829;50.228;18.936;2022-07-23T02:15:25;11.65;;;10.32;;
40116;SDS011;25829;50.228;18.936;2022-07-23T02:18:26;14.23;;;10.40;;
40116;SDS011;25829;50.228;18.936;2022-07-23T02:21:27;14.95;;;10.73;;
40116;SDS011;25829;50.228;18.936;2022-07-23T02:24:28;14.65;;;10.00;;
40116;SDS011;25829;50.228;18.936;2022-07-23T02:27:29;13.95;;;9.98;;
40116;SDS011;25829;50.228;18.936;2022-07-23T02:30:30;12.18;;;10.75;;
40116;SDS011;25829;50.228;18.936;2022-07-23T02:33:31;11.98;;;10.77;;
40116;SDS011;25829;50.228;18.936;2022-07-23T02:36:32;15.75;;;10.25;;
40116;SDS011;25829;50.228;18.936;2022-07-23T02:39:33;11.43;;;10.00;;
40116;SDS011;25829;50.228;18.936;2022-07-23T02:42:34;11.30;;;10.10;;
40116;SDS011;25829;50.228;18.936;2022-07-23T02:45:34;14.95;;;10.50;;
40116;SDS011;25829;50.228;18.936;2022-07-23T02:48:35;15.18;;;10.35;;
40116;SDS011;25829;50.228;18.936;2022-07-23T02:51:36;12.85;;;10.30;;
40116;SDS011;25829;50.228;18.936;2022-07-23T02:54:39;14.00;;;10.93;;
40116;SDS011;25829;50.228;18.936;2022-07-23T02:57:40;12.20;;;10.93;;
40116;SDS011;25829;50.228;18.936;2022-07-23T03:00:41;14.32;;;10.30;;
40116;SDS011;25829;50.228;18.936;2022-07-23T03:03:42;12.50;;;10.48;;
40116;SDS011;25829;50.228;18.936;2022-07-23T03:06:42;17.15;;;10.10;;
40116;SDS011;25829;50.228;18.936;2022-07-23T03:09:43;16.30;;;10.68;;
40116;SDS011;25829;50.228;18.936;2022-07-23T03:12:44;13.82;;;10.40;;
40116;SDS011;25829;50.228;18.936;2022-07-23T03:15:45;14.07;;;10.43;;
40116;SDS011;25829;50.228;18.936;2022-07-23T03:18:45;14.13;;;10.02;;
40116;SDS011;25829;50.228;18.936;2022-07-23T03:21:46;13.30;;;10.18;;
40116;SDS011;25829;50.228;18.936;2022-07-23T03:24:47;11.88;;;9.98;;
40116;SDS011;25829;50.228;18.936;2022-07-23T03:27:56;11.50;;;10.10;;
40116;SDS011;25829;50.228;18.936;2022-07-23T03:30:56;11.18;;;9.60;;
40116;SDS011;25829;50.228;18.936;2022-07-23T03:33:58;11.02;;;9.45;;
40116;SDS011;25829;50.228;18.936;2022-07-23T03:36:59;13.77;;;10.65;;
40116;SDS011;25829;50.228;18.936;2022-07-23T03:40:00;10.73;;;9.50;;
40116;SDS011;25829;50.228;18.936;2022-07-23T03:43:01;11.77;;;9.52;;
40116;SDS011;25829;50.228;18.936;2022-07-23T03:46:02;10.93;;;9.35;;
40116;SDS011;25829;50.228;18.936;2022-07-23T03:49:03;11.48;;;9.57;;
40116;SDS011;25829;50.228;18.936;2022-07-23T03:52:04;10.00;;;8.95;;
40116;SDS011;25829;50.228;18.936;2022-07-23T03:55:05;12.43;;;9.45;;
40116;SDS011;25829;50.228;18.936;2022-07-23T03:58:07;10.93;;;9.55;;
40116;SDS011;25829;50.228;18.936;2022-07-23T04:01:08;14.68;;;9.68;;
40116;SDS011;25829;50.228;18.936;2022-07-23T04:04:09;12.23;;;10.45;;
40116;SDS011;25829;50.228;18.936;2022-07-23T04:07:12;14.65;;;9.90;;
40116;SDS011;25829;50.228;18.936;2022-07-23T04:10:13;12.05;;;9.60;;
40116;SDS011;25829;50.228;18.936;2022-07-23T04:13:14;16.80;;;10.38;;
40116;SDS011;25829;50.228;18.936;2022-07-23T04:16:15;11.95;;;10.32;;
40116;SDS011;25829;50.228;18.936;2022-07-23T04:32:52;15.05;;;9.52;;
40116;SDS011;25829;50.228;18.936;2022-07-23T04:35:58;11.45;;;10.35;;
40116;SDS011;25829;50.228;18.936;2022-07-23T04:38:58;12.52;;;11.23;;
40116;SDS011;25829;50.228;18.936;2022-07-23T04:42:00;12.27;;;10.25;;
40116;SDS011;25829;50.228;18.936;2022-07-23T04:45:03;12.75;;;10.68;;
40116;SDS011;25829;50.228;18.936;2022-07-23T04:48:05;13.50;;;10.88;;
40116;SDS011;25829;50.228;18.936;2022-07-23T04:51:06;16.02;;;11.15;;
40116;SDS011;25829;50.228;18.936;2022-07-23T04:54:08;15.70;;;11.75;;
40116;SDS011;25829;50.228;18.936;2022-07-23T04:57:09;16.30;;;11.85;;
40116;SDS011;25829;50.228;18.936;2022-07-23T05:00:10;13.38;;;11.25;;
40116;SDS011;25829;50.228;18.936;2022-07-23T05:03:11;15.18;;;11.20;;
40116;SDS011;25829;50.228;18.936;2022-07-23T05:06:16;11.77;;;10.32;;
40116;SDS011;25829;50.228;18.936;2022-07-23T05:09:17;13.20;;;11.20;;
40116;SDS011;25829;50.228;18.936;2022-07-23T05:12:17;13.15;;;11.68;;
40116;SDS011;25829;50.228;18.936;2022-07-23T05:15:19;13.57;;;12.05;;
40116;SDS011;25829;50.228;18.936;2022-07-23T05:18:20;15.10;;;11.98;;
40116;SDS011;25829;50.228;18.936;2022-07-23T05:21:21;16.67;;;12.50;;
40116;SDS011;25829;50.228;18.936;2022-07-23T05:24:22;13.32;;;11.93;;
40116;SDS011;25829;50.228;18.936;2022-07-23T05:27:24;14.98;;;12.40;;
40116;SDS011;25829;50.228;18.936;2022-07-23T05:30:25;17.63;;;12.90;;
40116;SDS011;25829;50.228;18.936;2022-07-23T05:33:32;16.27;;;13.35;;
40116;SDS011;25829;50.228;18.936;2022-07-23T05:36:33;16.90;;;14.15;;
40116;SDS011;25829;50.228;18.936;2022-07-23T05:39:35;16.90;;;13.32;;
40116;SDS011;25829;50.228;18.936;2022-07-23T05:42:39;17.52;;;14.00;;
40116;SDS011;25829;50.228;18.936;2022-07-23T05:45:41;17.80;;;13.30;;
40116;SDS011;25829;50.228;18.936;2022-07-23T05:48:42;20.52;;;14.13;;
40116;SDS011;25829;50.228;18.936;2022-07-23T05:52:03;18.25;;;13.75;;
40116;SDS011;25829;50.228;18.936;2022-07-23T05:55:20;17.40;;;14.07;;
40116;SDS011;25829;50.228;18.936;2022-07-23T05:58:21;20.10;;;14.45;;
40116;SDS011;25829;50.228;18.936;2022-07-23T06:01:22;19.63;;;15.10;;
40116;SDS011;25829;50.228;18.936;2022-07-23T06:04:30;19.60;;;14.73;;
40116;SDS011;25829;50.228;18.936;2022-07-23T06:07:48;18.75;;;14.95;;
40116;SDS011;25829;50.228;18.936;2022-07-23T06:10:50;23.25;;;15.20;;
40116;SDS011;25829;50.228;18.936;2022-07-23T06:13:51;20.45;;;16.02;;
40116;SDS011;25829;50.228;18.936;2022-07-23T06:16:54;23.50;;;15.50;;
40116;SDS011;25829;50.228;18.936;2022-07-23T06:19:56;20.60;;;15.68;;
40116;SDS011;25829;50.228;18.936;2022-07-23T06:22:56;24.48;;;17.20;;
40116;SDS011;25829;50.228;18.936;2022-07-23T06:25:57;23.23;;;15.70;;
40116;SDS011;25829;50.228;18.936;2022-07-23T06:28:58;19.55;;;14.52;;
40116;SDS011;25829;50.228;18.936;2022-07-23T06:32:00;17.08;;;14.93;;
40116;SDS011;25829;50.228;18.936;2022-07-23T06:35:02;23.83;;;14.18;;
40116;SDS011;25829;50.228;18.936;2022-07-23T06:38:03;20.42;;;14.50;;
40116;SDS011;25829;50.228;18.936;2022-07-23T06:41:04;20.00;;;15.02;;
40116;SDS011;25829;50.228;18.936;2022-07-23T06:44:04;20.45;;;15.52;;
40116;SDS011;25829;50.228;18.936;2022-07-23T06:47:08;20.33;;;15.30;;
40116;SDS011;25829;50.228;18.936;2022-07-23T06:50:15;20.45;;;15.00;;
40116;SDS011;25829;50.228;18.936;2022-07-23T06:53:16;15.93;;;14.00;;
40116;SDS011;25829;50.228;18.936;2022-07-23T06:56:35;20.20;;;14.40;;
40116;SDS011;25829;50.228;18.936;2022-07-23T06:59:36;22.38;;;14.20;;
40116;SDS011;25829;50.228;18.936;2022-07-23T07:02:40;18.70;;;14.10;;
40116;SDS011;25829;50.228;18.936;2022-07-23T07:05:41;15.95;;;14.25;;
40116;SDS011;25829;50.228;18.936;2022-07-23T07:08:42;22.38;;;14.20;;
40116;SDS011;25829;50.228;18.936;2022-07-23T07:11:44;17.63;;;13.45;;
40116;SDS011;25829;50.228;18.936;2022-07-23T07:14:44;16.02;;;12.68;;
40116;SDS011;25829;50.228;18.936;2022-07-23T07:17:45;16.42;;;14.57;;
40116;SDS011;25829;50.228;18.936;2022-07-23T07:20:49;19.80;;;13.77;;
40116;SDS011;25829;50.228;18.936;2022-07-23T07:23:50;20.05;;;14.68;;
40116;SDS011;25829;50.228;18.936;2022-07-23T07:26:54;18.38;;;14.23;;
40116;SDS011;25829;50.228;18.936;2022-07-23T07:29:55;19.15;;;14.30;;
40116;SDS011;25829;50.228;18.936;2022-07-23T07:32:59;15.57;;;13.95;;
40116;SDS011;25829;50.228;18.936;2022-07-23T07:36:00;15.25;;;13.43;;
40116;SDS011;25829;50.228;18.936;2022-07-23T07:39:04;16.88;;;12.50;;
40116;SDS011;25829;50.228;18.936;2022-07-23T07:42:08;18.75;;;11.63;;
40116;SDS011;25829;50.228;18.936;2022-07-23T07:45:19;13.27;;;11.57;;
40116;SDS011;25829;50.228;18.936;2022-07-23T07:48:24;14.90;;;11.35;;
40116;SDS011;25829;50.228;18.936;2022-07-23T07:51:31;13.05;;;11.13;;
40116;SDS011;25829;50.228;18.936;2022-07-23T07:54:57;13.25;;;10.07;;
40116;SDS011;25829;50.228;18.936;2022-07-23T07:58:00;13.55;;;10.00;;
40116;SDS011;25829;50.228;18.936;2022-07-23T08:01:02;12.30;;;9.85;;
40116;SDS011;25829;50.228;18.936;2022-07-23T08:04:12;13.88;;;9.57;;
40116;SDS011;25829;50.228;18.936;2022-07-23T08:07:13;13.52;;;10.60;;
40116;SDS011;25829;50.228;18.936;2022-07-23T08:10:19;11.60;;;10.40;;
40116;SDS011;25829;50.228;18.936;2022-07-23T08:13:32;15.63;;;10.25;;
40116;SDS011;25829;50.228;18.936;2022-07-23T08:16:36;12.00;;;9.65;;
40116;SDS011;25829;50.228;18.936;2022-07-23T08:22:50;16.08;;;9.13;;
40116;SDS011;25829;50.228;18.936;2022-07-23T08:25:51;9.60;;;8.57;;
40116;SDS011;25829;50.228;18.936;2022-07-23T08:28:52;14.52;;;9.65;;
40116;SDS011;25829;50.228;18.936;2022-07-23T08:31:53;10.40;;;8.68;;
40116;SDS011;25829;50.228;18.936;2022-07-23T08:34:56;13.63;;;8.90;;
40116;SDS011;25829;50.228;18.936;2022-07-23T08:37:57;11.18;;;8.63;;
40116;SDS011;25829;50.228;18.936;2022-07-23T08:41:12;10.63;;;8.90;;
40116;SDS011;25829;50.228;18.936;2022-07-23T08:44:13;12.07;;;9.05;;
40116;SDS011;25829;50.228;18.936;2022-07-23T08:50:44;10.63;;;9.60;;
40116;SDS011;25829;50.228;18.936;2022-07-23T08:53:54;11.60;;;9.23;;
40116;SDS011;25829;50.228;18.936;2022-07-23T08:56:57;12.07;;;7.70;;
40116;SDS011;25829;50.228;18.936;2022-07-23T08:59:58;7.25;;;6.63;;
40116;SDS011;25829;50.228;18.936;2022-07-23T09:02:59;9.13;;;7.40;;
40116;SDS011;25829;50.228;18.936;2022-07-23T09:05:59;10.95;;;8.10;;
40116;SDS011;25829;50.228;18.936;2022-07-23T09:09:01;13.32;;;8.30;;
40116;SDS011;25829;50.228;18.936;2022-07-23T09:12:20;9.98;;;9.02;;
40116;SDS011;25829;50.228;18.936;2022-07-23T09:15:26;9.90;;;8.82;;
40116;SDS011;25829;50.228;18.936;2022-07-23T09:18:37;10.65;;;8.52;;
40116;SDS011;25829;50.228;18.936;2022-07-23T09:21:44;8.30;;;7.57;;
40116;SDS011;25829;50.228;18.936;2022-07-23T09:28:05;8.73;;;7.78;;
40116;SDS011;25829;50.228;18.936;2022-07-23T09:31:07;8.20;;;7.50;;
40116;SDS011;25829;50.228;18.936;2022-07-23T09:34:25;8.13;;;7.28;;
40116;SDS011;25829;50.228;18.936;2022-07-23T09:37:30;7.80;;;7.10;;
40116;SDS011;25829;50.228;18.936;2022-07-23T09:40:31;8.45;;;7.65;;
40116;SDS011;25829;50.228;18.936;2022-07-23T09:43:32;7.82;;;7.13;;
40116;SDS011;25829;50.228;18.936;2022-07-23T09:46:33;8.07;;;7.28;;
40116;SDS011;25829;50.228;18.936;2022-07-23T09:49:37;7.90;;;7.10;;
40116;SDS011;25829;50.228;18.936;2022-07-23T09:52:45;8.60;;;7.53;;
40116;SDS011;25829;50.228;18.936;2022-07-23T09:55:50;7.93;;;7.20;;
40116;SDS011;25829;50.228;18.936;2022-07-23T09:58:54;8.65;;;7.80;;
40116;SDS011;25829;50.228;18.936;2022-07-23T10:02:17;7.97;;;7.22;;
40116;SDS011;25829;50.228;18.936;2022-07-23T10:05:50;10.07;;;7.20;;
40116;SDS011;25829;50.228;18.936;2022-07-23T10:09:22;7.70;;;6.53;;
40116;SDS011;25829;50.228;18.936;2022-07-23T10:13:07;7.57;;;5.90;;
40116;SDS011;25829;50.228;18.936;2022-07-23T10:16:10;7.18;;;6.35;;
40116;SDS011;25829;50.228;18.936;2022-07-23T10:19:26;6.93;;;5.80;;
40116;SDS011;25829;50.228;18.936;2022-07-23T10:22:29;7.00;;;6.13;;
40116;SDS011;25829;50.228;18.936;2022-07-23T10:36:52;7.43;;;5.95;;
40116;SDS011;25829;50.228;18.936;2022-07-23T10:40:25;6.75;;;6.15;;
40116;SDS011;25829;50.228;18.936;2022-07-23T10:43:31;6.55;;;5.95;;
40116;SDS011;25829;50.228;18.936;2022-07-23T10:46:32;9.10;;;7.20;;
40116;SDS011;25829;50.228;18.936;2022-07-23T11:04:53;10.13;;;7.63;;
40116;SDS011;25829;50.228;18.936;2022-07-23T11:11:11;7.90;;;6.72;;
40116;SDS011;25829;50.228;18.936;2022-07-23T11:24:50;10.00;;;7.10;;
40116;SDS011;25829;50.228;18.936;2022-07-23T11:28:17;8.82;;;6.63;;
40116;SDS011;25829;50.228;18.936;2022-07-23T11:31:33;9.07;;;7.70;;
40116;SDS011;25829;50.228;18.936;2022-07-23T11:34:43;7.80;;;6.93;;
40116;SDS011;25829;50.228;18.936;2022-07-23T11:37:48;8.90;;;6.80;;
40116;SDS011;25829;50.228;18.936;2022-07-23T11:40:55;6.97;;;6.05;;
40116;SDS011;25829;50.228;18.936;2022-07-23T11:44:26;9.93;;;6.35;;
40116;SDS011;25829;50.228;18.936;2022-07-23T11:47:37;6.85;;;6.25;;
40116;SDS011;25829;50.228;18.936;2022-07-23T11:50:37;6.97;;;6.28;;
40116;SDS011;25829;50.228;18.936;2022-07-23T11:53:38;7.75;;;6.35;;
40116;SDS011;25829;50.228;18.936;2022-07-23T11:56:58;7.18;;;6.25;;
40116;SDS011;25829;50.228;18.936;2022-07-23T12:00:13;7.03;;;6.28;;
40116;SDS011;25829;50.228;18.936;2022-07-23T12:03:26;7.07;;;6.38;;
40116;SDS011;25829;50.228;18.936;2022-07-23T12:06:26;7.47;;;6.22;;
40116;SDS011;25829;50.228;18.936;2022-07-23T12:09:27;7.28;;;6.50;;
40116;SDS011;25829;50.228;18.936;2022-07-23T12:12:34;6.95;;;6.25;;
40116;SDS011;25829;50.228;18.936;2022-07-23T12:15:38;6.68;;;6.00;;
40116;SDS011;25829;50.228;18.936;2022-07-23T12:18:42;8.68;;;6.30;;
40116;SDS011;25829;50.228;18.936;2022-07-23T12:21:49;7.53;;;6.82;;
40116;SDS011;25829;50.228;18.936;2022-07-23T12:24:56;6.53;;;5.93;;
40116;SDS011;25829;50.228;18.936;2022-07-23T12:28:03;6.95;;;6.35;;
40116;SDS011;25829;50.228;18.936;2022-07-23T12:31:31;9.93;;;6.95;;
40116;SDS011;25829;50.228;18.936;2022-07-23T12:34:32;7.30;;;6.53;;
40116;SDS011;25829;50.228;18.936;2022-07-23T12:37:39;8.93;;;6.18;;
40116;SDS011;25829;50.228;18.936;2022-07-23T13:06:13;8.43;;;7.20;;
40116;SDS011;25829;50.228;18.936;2022-07-23T13:16:03;7.75;;;7.05;;
40116;SDS011;25829;50.228;18.936;2022-07-23T13:19:47;8.25;;;7.45;;
40116;SDS011;25829;50.228;18.936;2022-07-23T13:22:59;9.25;;;7.32;;
40116;SDS011;25829;50.228;18.936;2022-07-23T13:31:10;9.48;;;7.68;;
40116;SDS011;25829;50.228;18.936;2022-07-23T13:36:03;8.02;;;7.22;;
40116;SDS011;25829;50.228;18.936;2022-07-23T13:39:23;7.63;;;6.63;;
40116;SDS011;25829;50.228;18.936;2022-07-23T13:42:24;8.18;;;7.18;;
40116;SDS011;25829;50.228;18.936;2022-07-23T13:49:43;12.93;;;6.68;;
40116;SDS011;25829;50.228;18.936;2022-07-23T13:53:48;11.13;;;7.50;;
40116;SDS011;25829;50.228;18.936;2022-07-23T13:58:08;13.52;;;7.30;;
40116;SDS011;25829;50.228;18.936;2022-07-23T14:02:48;9.23;;;6.88;;
40116;SDS011;25829;50.228;18.936;2022-07-23T14:07:34;9.93;;;8.18;;
40116;SDS011;25829;50.228;18.936;2022-07-23T14:12:10;9.90;;;7.63;;
40116;SDS011;25829;50.228;18.936;2022-07-23T14:33:58;12.45;;;8.05;;
40116;SDS011;25829;50.228;18.936;2022-07-23T14:36:59;18.70;;;8.07;;
40116;SDS011;25829;50.228;18.936;2022-07-23T14:40:00;12.23;;;8.07;;
40116;SDS011;25829;50.228;18.936;2022-07-23T14:43:01;7.70;;;6.95;;
40116;SDS011;25829;50.228;18.936;2022-07-23T14:46:03;10.02;;;6.95;;
40116;SDS011;25829;50.228;18.936;2022-07-23T14:52:06;14.30;;;6.88;;
40116;SDS011;25829;50.228;18.936;2022-07-23T14:55:07;7.85;;;6.97;;
40116;SDS011;25829;50.228;18.936;2022-07-23T14:58:08;7.32;;;6.63;;
40116;SDS011;25829;50.228;18.936;2022-07-23T15:01:09;11.90;;;7.28;;
40116;SDS011;25829;50.228;18.936;2022-07-23T15:04:10;9.10;;;7.22;;
40116;SDS011;25829;50.228;18.936;2022-07-23T15:07:14;7.85;;;6.95;;
40116;SDS011;25829;50.228;18.936;2022-07-23T15:10:17;12.70;;;7.78;;
40116;SDS011;25829;50.228;18.936;2022-07-23T15:13:18;12.60;;;7.55;;
40116;SDS011;25829;50.228;18.936;2022-07-23T15:16:19;10.20;;;7.60;;
40116;SDS011;25829;50.228;18.936;2022-07-23T15:19:20;10.27;;;8.10;;
40116;SDS011;25829;50.228;18.936;2022-07-23T15:22:21;12.27;;;8.00;;
40116;SDS011;25829;50.228;18.936;2022-07-23T15:25:22;15.70;;;7.97;;
40116;SDS011;25829;50.228;18.936;2022-07-23T15:28:22;15.25;;;9.55;;
40116;SDS011;25829;50.228;18.936;2022-07-23T15:31:24;10.35;;;8.48;;
40116;SDS011;25829;50.228;18.936;2022-07-23T15:34:26;13.25;;;8.30;;
40116;SDS011;25829;50.228;18.936;2022-07-23T15:37:27;10.27;;;8.00;;
40116;SDS011;25829;50.228;18.936;2022-07-23T15:40:32;11.80;;;7.97;;
40116;SDS011;25829;50.228;18.936;2022-07-23T15:43:33;10.48;;;8.10;;
40116;SDS011;25829;50.228;18.936;2022-07-23T15:46:34;10.20;;;8.60;;
40116;SDS011;25829;50.228;18.936;2022-07-23T15:49:35;11.57;;;8.20;;
40116;SDS011;25829;50.228;18.936;2022-07-23T15:52:36;9.27;;;7.82;;
40116;SDS011;25829;50.228;18.936;2022-07-23T15:55:37;12.70;;;7.78;;
40116;SDS011;25829;50.228;18.936;2022-07-23T15:58:39;10.82;;;8.23;;
40116;SDS011;25829;50.228;18.936;2022-07-23T16:01:39;10.38;;;7.85;;
40116;SDS011;25829;50.228;18.936;2022-07-23T16:04:40;12.68;;;7.93;;
40116;SDS011;25829;50.228;18.936;2022-07-23T16:07:41;11.18;;;8.07;;
40116;SDS011;25829;50.228;18.936;2022-07-23T16:10:42;8.82;;;7.93;;
40116;SDS011;25829;50.228;18.936;2022-07-23T16:13:46;9.02;;;7.70;;
40116;SDS011;25829;50.228;18.936;2022-07-23T16:16:47;9.90;;;7.80;;
40116;SDS011;25829;50.228;18.936;2022-07-23T16:19:47;8.35;;;7.55;;
40116;SDS011;25829;50.228;18.936;2022-07-23T16:22:48;9.07;;;8.18;;
40116;SDS011;25829;50.228;18.936;2022-07-23T16:25:49;8.95;;;8.05;;
40116;SDS011;25829;50.228;18.936;2022-07-23T16:28:50;8.38;;;7.68;;
40116;SDS011;25829;50.228;18.936;2022-07-23T16:31:51;10.38;;;7.95;;
40116;SDS011;25829;50.228;18.936;2022-07-23T16:34:52;9.93;;;8.05;;
40116;SDS011;25829;50.228;18.936;2022-07-23T16:37:53;9.70;;;8.07;;
40116;SDS011;25829;50.228;18.936;2022-07-23T16:40:54;12.18;;;8.00;;
40116;SDS011;25829;50.228;18.936;2022-07-23T16:43:56;10.02;;;8.25;;
40116;SDS011;25829;50.228;18.936;2022-07-23T16:46:56;9.90;;;8.93;;
40116;SDS011;25829;50.228;18.936;2022-07-23T16:49:57;11.35;;;8.20;;
40116;SDS011;25829;50.228;18.936;2022-07-23T16:52:58;9.05;;;8.15;;
40116;SDS011;25829;50.228;18.936;2022-07-23T16:55:59;8.63;;;7.82;;
40116;SDS011;25829;50.228;18.936;2022-07-23T16:58:59;10.90;;;8.40;;
40116;SDS011;25829;50.228;18.936;2022-07-23T17:02:00;8.60;;;7.78;;
40116;SDS011;25829;50.228;18.936;2022-07-23T17:05:01;9.32;;;7.97;;
40116;SDS011;25829;50.228;18.936;2022-07-23T17:08:02;11.82;;;8.73;;
40116;SDS011;25829;50.228;18.936;2022-07-23T17:11:03;9.35;;;7.80;;
40116;SDS011;25829;50.228;18.936;2022-07-23T17:14:04;11.00;;;8.00;;
40116;SDS011;25829;50.228;18.936;2022-07-23T17:17:06;8.85;;;7.95;;
40116;SDS011;25829;50.228;18.936;2022-07-23T17:20:07;10.93;;;7.80;;
40116;SDS011;25829;50.228;18.936;2022-07-23T17:23:08;8.85;;;7.95;;
40116;SDS011;25829;50.228;18.936;2022-07-23T17:26:09;8.85;;;8.05;;
40116;SDS011;25829;50.228;18.936;2022-07-23T17:29:10;11.20;;;7.65;;
40116;SDS011;25829;50.228;18.936;2022-07-23T17:32:11;9.93;;;8.48;;
40116;SDS011;25829;50.228;18.936;2022-07-23T17:35:12;9.73;;;7.75;;
40116;SDS011;25829;50.228;18.936;2022-07-23T17:38:13;10.23;;;7.57;;
40116;SDS011;25829;50.228;18.936;2022-07-23T17:41:14;8.85;;;7.95;;
40116;SDS011;25829;50.228;18.936;2022-07-23T17:44:16;9.38;;;8.45;;
40116;SDS011;25829;50.228;18.936;2022-07-23T17:47:18;9.70;;;8.77;;
40116;SDS011;25829;50.228;18.936;2022-07-23T17:50:19;11.88;;;8.32;;
40116;SDS011;25829;50.228;18.936;2022-07-23T17:53:20;10.65;;;8.00;;
40116;SDS011;25829;50.228;18.936;2022-07-23T17:56:23;12.48;;;9.38;;
40116;SDS011;25829;50.228;18.936;2022-07-23T17:59:24;8.88;;;7.97;;
40116;SDS011;25829;50.228;18.936;2022-07-23T18:02:26;11.10;;;8.32;;
40116;SDS011;25829;50.228;18.936;2022-07-23T18:05:27;9.75;;;8.48;;
40116;SDS011;25829;50.228;18.936;2022-07-23T18:08:28;10.10;;;9.05;;
40116;SDS011;25829;50.228;18.936;2022-07-23T18:11:30;10.07;;;8.45;;
40116;SDS011;25829;50.228;18.936;2022-07-23T18:14:31;13.15;;;8.70;;
40116;SDS011;25829;50.228;18.936;2022-07-23T18:17:32;13.13;;;9.73;;
40116;SDS011;25829;50.228;18.936;2022-07-23T18:20:33;9.75;;;8.38;;
40116;SDS011;25829;50.228;18.936;2022-07-23T18:23:34;10.82;;;8.57;;
40116;SDS011;25829;50.228;18.936;2022-07-23T18:26:35;9.50;;;8.60;;
40116;SDS011;25829;50.228;18.936;2022-07-23T18:29:35;13.80;;;9.25;;
40116;SDS011;25829;50.228;18.936;2022-07-23T18:32:37;10.52;;;8.65;;
40116;SDS011;25829;50.228;18.936;2022-07-23T18:35:38;11.75;;;8.32;;
40116;SDS011;25829;50.228;18.936;2022-07-23T18:38:39;10.27;;;8.43;;
40116;SDS011;25829;50.228;18.936;2022-07-23T18:41:40;11.77;;;9.02;;
40116;SDS011;25829;50.228;18.936;2022-07-23T18:44:41;11.23;;;8.30;;
40116;SDS011;25829;50.228;18.936;2022-07-23T18:47:42;11.35;;;8.68;;
40116;SDS011;25829;50.228;18.936;2022-07-23T18:50:43;16.63;;;9.10;;
40116;SDS011;25829;50.228;18.936;2022-07-23T18:53:45;16.98;;;9.95;;
40116;SDS011;25829;50.228;18.936;2022-07-23T18:56:46;14.27;;;8.75;;
40116;SDS011;25829;50.228;18.936;2022-07-23T18:59:47;12.77;;;9.18;;
40116;SDS011;25829;50.228;18.936;2022-07-23T19:02:50;11.70;;;8.90;;
40116;SDS011;25829;50.228;18.936;2022-07-23T19:05:50;11.52;;;9.25;;
40116;SDS011;25829;50.228;18.936;2022-07-23T19:08:51;12.32;;;8.70;;
40116;SDS011;25829;50.228;18.936;2022-07-23T19:11:52;11.82;;;9.48;;
40116;SDS011;25829;50.228;18.936;2022-07-23T19:14:53;11.27;;;8.63;;
40116;SDS011;25829;50.228;18.936;2022-07-23T19:17:54;12.55;;;9.50;;
40116;SDS011;25829;50.228;18.936;2022-07-23T19:20:54;10.90;;;9.45;;
40116;SDS011;25829;50.228;18.936;2022-07-23T19:23:55;12.10;;;9.23;;
40116;SDS011;25829;50.228;18.936;2022-07-23T19:26:56;11.10;;;9.35;;
40116;SDS011;25829;50.228;18.936;2022-07-23T19:29:57;11.05;;;9.52;;
40116;SDS011;25829;50.228;18.936;2022-07-23T19:32:57;10.15;;;8.85;;
40116;SDS011;25829;50.228;18.936;2022-07-23T19:35:58;12.55;;;9.18;;
40116;SDS011;25829;50.228;18.936;2022-07-23T19:39:01;9.95;;;8.65;;
40116;SDS011;25829;50.228;18.936;2022-07-23T19:42:03;10.32;;;9.32;;
40116;SDS011;25829;50.228;18.936;2022-07-23T19:45:05;11.23;;;9.15;;
40116;SDS011;25829;50.228;18.936;2022-07-23T19:48:06;10.25;;;9.23;;
40116;SDS011;25829;50.228;18.936;2022-07-23T19:51:07;13.90;;;10.20;;
40116;SDS011;25829;50.228;18.936;2022-07-23T19:54:08;10.90;;;9.23;;
40116;SDS011;25829;50.228;18.936;2022-07-23T19:57:09;12.15;;;9.50;;
40116;SDS011;25829;50.228;18.936;2022-07-23T20:00:11;19.70;;;10.43;;
40116;SDS011;25829;50.228;18.936;2022-07-23T20:03:13;12.05;;;10.77;;
40116;SDS011;25829;50.228;18.936;2022-07-23T20:06:14;12.00;;;10.20;;
40116;SDS011;25829;50.228;18.936;2022-07-23T20:09:15;13.18;;;10.27;;